Latest Weather Observations for Perth Airport

IDW60901

Issued at 4:51 pm WST Friday 28 July 2017 (issued every 10 minutes, with the page automatically refreshed every 10 minutes)

About weather observations | Map of Perth area stations | Latest observations for Perth area | Other Formats
Station Details ID: 009021 Name: PERTH AIRPORT Lat: -31.93 Lon: 115.98 Height: 15.4 m
Data from the previous 72 hours. | See also: Recent months at Perth Airport
Date/Time
WST
Temp
°C
App
Temp
°C
Dew
Point
°C
Rel
Hum
%
Delta-T
°C
Wind Press
QNH
hPa
Press
MSL
hPa
Rain since
9am
mm
Dir  Spd
km/h
Gust
km/h
Spd
kts
Gust
kts
28/04:30pm 13.4 8.3 10.5 82 1.5 W 28 48 15 26 1010.2 1010.2 3.0
28/04:19pm 13.0 7.1 10.3 84 1.4 WSW 32 50 17 27 1010.0 1010.0 3.0
28/04:09pm 15.3 9.6 8.4 63 3.5 W 28 48 15 26 1009.6 1009.6 2.6
28/04:00pm 15.6 9.3 7.6 59 4.0 WNW 30 48 16 26 1009.4 1009.4 2.6
28/03:54pm 15.7 9.4 7.2 57 4.2 WNW 30 48 16 26 1009.3 1009.3 2.6
28/03:30pm 15.5 9.6 8.9 65 3.4 W 30 46 16 25 1009.2 1009.2 2.6
28/03:00pm 13.9 6.9 11.1 83 1.5 W 39 61 21 33 1009.4 1009.4 2.6
28/02:30pm 14.3 6.9 9.7 74 2.4 W 39 57 21 31 1009.4 1009.4 2.6
28/02:04pm 16.1 10.8 10.0 67 3.2 W 28 48 15 26 1009.0 1009.0 2.4
28/02:00pm 15.9 11.1 10.4 70 2.9 WNW 26 39 14 21 1009.0 1009.0 2.4
28/01:37pm 15.5 9.6 10.6 72 2.6 WNW 32 76 17 41 1009.1 1009.1 2.4
28/01:35pm 16.1 10.4 9.8 66 3.3 WNW 30 56 16 30 1008.8 1008.8 2.2
28/01:30pm 16.2 11.6 11.2 72 2.7 WNW 26 37 14 20 1008.8 1008.8 2.2
28/01:00pm 14.5 9.3 11.5 82 1.6 NW 30 37 16 20 1009.4 1009.4 2.2
28/12:35pm 15.3 9.2 10.4 72 2.6 W 33 48 18 26 1009.8 1009.8 1.2
28/12:30pm 16.4 9.8 8.6 60 4.0 W 33 52 18 28 1009.2 1009.2 0.8
28/12:00pm 16.8 10.2 7.9 55 4.5 W 32 50 17 27 1009.5 1009.5 0.8
28/11:38am 16.9 11.6 9.7 62 3.8 WNW 28 52 15 28 1009.8 1009.8 0.8
28/11:30am 16.4 11.7 10.8 69 3.0 WNW 26 37 14 20 1009.9 1009.9 0.8
28/11:00am 16.3 10.3 10.0 66 3.3 W 32 54 17 29 1009.9 1009.9 0.6
28/10:33am 15.1 10.3 11.6 79 1.9 WNW 28 52 15 28 1009.9 1009.9 0.6
28/10:30am 15.5 11.1 11.6 77 2.1 WNW 26 52 14 28 1010.0 1010.0 0.4
28/10:00am 16.0 10.3 11.0 72 2.7 WNW 32 56 17 30 1010.2 1010.2 0.0
28/09:36am 16.3 11.0 10.0 66 3.3 W 28 52 15 28 1009.8 1009.8 0.0
28/09:30am 16.2 10.9 9.7 65 3.4 WNW 28 41 15 22 1009.6 1009.6 0.0
28/09:17am 17.1 11.0 8.1 55 4.6 WNW 30 48 16 26 1009.4 1009.4 0.0
28/09:00am 17.0 11.9 9.1 59 4.1 WNW 26 41 14 22 1009.2 1009.2 11.2
28/08:30am 16.9 11.9 8.1 56 4.5 WNW 24 43 13 23 1008.9 1008.9 11.2
28/08:00am 16.6 11.1 9.3 62 3.8 W 28 43 15 23 1008.6 1008.6 11.2
28/07:30am 16.6 11.4 8.8 60 4.0 W 26 39 14 21 1008.4 1008.4 11.2
28/07:00am 16.9 13.1 9.7 62 3.8 W 20 32 11 17 1008.1 1008.1 11.2
28/06:33am 16.5 11.1 9.4 63 3.7 W 28 46 15 25 1008.0 1008.0 11.2
28/06:30am 16.4 10.6 9.5 63 3.6 W 30 46 16 25 1008.0 1008.0 11.2
28/06:26am 16.5 11.0 9.2 62 3.8 W 28 46 15 25 1008.1 1008.1 11.2
28/06:00am 17.0 12.1 8.4 57 4.4 W 24 37 13 20 1007.9 1007.9 11.2
28/05:30am 17.0 10.7 8.9 59 4.2 W 32 52 17 28 1007.7 1007.7 11.2
28/05:00am 17.0 11.1 10.4 65 3.5 W 32 54 17 29 1007.7 1007.7 11.2
28/04:30am 16.5 11.3 11.7 73 2.6 W 30 48 16 26 1007.5 1007.5 11.2
28/04:26am 16.4 11.6 11.8 74 2.5 W 28 48 15 26 1007.6 1007.6 11.2
28/04:00am 16.2 12.3 13.2 82 1.7 W 26 43 14 23 1007.6 1007.6 11.0
28/03:49am 16.5 13.2 13.9 84 1.5 W 24 54 13 29 1007.5 1007.5 11.0
28/03:30am 16.3 14.5 14.4 88 1.1 W 17 28 9 15 1007.3 1007.3 11.0
28/03:07am 16.1 14.5 15.1 94 0.6 WNW 17 26 9 14 1007.4 1007.4 11.0
28/03:00am 16.1 13.6 15.1 94 0.6 WNW 22 37 12 20 1007.5 1007.5 11.0
28/02:57am 16.0 12.7 15.1 94 0.5 WNW 26 39 14 21 1007.5 1007.5 11.0
28/02:37am 16.0 13.1 15.1 94 0.5 WNW 24 37 13 20 1007.5 1007.5 10.0
28/02:30am 16.0 12.7 15.1 94 0.5 WNW 26 39 14 21 1007.5 1007.5 9.8
28/02:28am 16.0 12.3 15.1 94 0.5 WNW 28 41 15 22 1007.5 1007.5 9.8
28/02:16am 16.7 12.1 15.0 90 1.0 WNW 33 52 18 28 1007.8 1007.8 7.4
28/02:15am 17.0 11.9 14.8 87 1.3 NW 35 52 19 28 1007.7 1007.7 6.4
28/02:13am 18.0 12.2 13.8 76 2.4 NW 37 56 20 30 1007.4 1007.4 4.4
28/02:11am 18.4 12.3 13.1 71 3.0 NW 37 56 20 30 1007.0 1007.0 4.0
28/02:00am 18.4 12.0 13.1 71 3.0 NNW 39 59 21 32 1006.8 1006.8 4.0
28/01:44am 18.3 12.2 13.0 71 3.0 NNW 37 59 20 32 1007.0 1007.0 4.0
28/01:30am 17.9 12.2 13.1 73 2.7 NW 35 52 19 28 1007.3 1007.3 4.0
28/01:04am 15.4 10.7 14.3 93 0.6 NNW 32 50 17 27 1007.8 1007.8 4.0
28/01:00am 15.5 10.3 14.4 93 0.6 NNW 35 50 19 27 1007.9 1007.9 4.0
28/12:30am 15.8 12.0 14.6 93 0.7 NNW 28 48 15 26 1008.3 1008.3 4.0
28/12:00am 16.5 13.3 14.2 86 1.3 NNW 24 37 13 20 1008.6 1008.6 4.0
 
Date/Time
WST
Temp
°C
App
Temp
°C
Dew
Point
°C
Rel
Hum
%
Delta-T
°C
Wind Press
QNH
hPa
Press
MSL
hPa
Rain since
9am
mm
Dir  Spd
km/h
Gust
km/h
Spd
kts
Gust
kts
27/11:30pm 15.8 14.2 14.9 94 0.5 NNE 17 20 9 11 1009.2 1009.2 4.0
27/11:00pm 15.9 13.7 14.9 94 0.6 NNE 20 26 11 14 1009.5 1009.5 4.0
27/10:30pm 16.0 13.8 15.0 94 0.6 N 20 28 11 15 1009.8 1009.8 4.0
27/10:00pm 15.8 13.2 14.9 94 0.5 N 22 30 12 16 1010.0 1010.0 4.0
27/09:30pm 15.8 13.6 14.9 94 0.5 N 20 28 11 15 1010.3 1010.3 4.0
27/09:00pm 16.0 12.0 15.1 94 0.5 NNW 30 46 16 25 1010.6 1010.6 4.0
27/08:50pm 16.3 12.0 15.8 97 0.3 NW 33 56 18 30 1010.9 1010.9 2.8
27/08:46pm 16.4 13.7 15.5 94 0.5 NW 24 56 13 30 1010.8 1010.8 1.8
27/08:39pm 16.6 14.8 15.6 94 0.6 NW 19 26 10 14 1010.6 1010.6 0.8
27/08:30pm 16.6 14.8 15.4 93 0.7 NNW 19 28 10 15 1010.7 1010.7 0.6
27/08:00pm 17.2 15.3 15.1 87 1.2 N 19 24 10 13 1010.8 1010.8 0.2
27/07:30pm 17.7 16.0 14.6 82 1.8 N 17 24 9 13 1011.2 1011.2 0.2
27/07:00pm 18.2 14.9 14.0 76 2.4 NNW 24 33 13 18 1011.3 1011.3 0.2
27/06:30pm 18.4 14.1 14.4 77 2.3 NNW 30 37 16 20 1011.4 1011.4 0.2
27/06:00pm 18.6 14.0 14.6 77 2.3 NNW 32 43 17 23 1011.5 1011.5 0.2
27/05:30pm 18.9 14.9 14.2 74 2.7 NNW 28 39 15 21 1011.5 1011.5 0.2
27/05:09pm 19.1 13.4 14.1 73 2.9 NNW 37 52 20 28 1011.7 1011.7 0.2
27/05:00pm 19.4 14.3 13.8 70 3.2 NNW 33 46 18 25 1011.7 1011.7 0.2
27/04:30pm 19.9 13.1 13.2 65 3.8 NNW 41 59 22 32 1011.7 1011.7 0.2
27/04:00pm 20.5 14.3 11.5 56 5.0 NNW 35 57 19 31 1011.7 1011.7 0.2
27/03:46pm 19.8 13.5 12.3 62 4.2 NNW 37 56 20 30 1011.8 1011.8 0.2
27/03:30pm 19.6 11.9 12.1 62 4.2 NW 44 57 24 31 1012.0 1012.0 0.2
27/03:08pm 20.0 15.0 12.3 61 4.3 NNW 30 57 16 31 1011.9 1011.9 0.2
27/03:00pm 19.4 15.9 13.4 68 3.4 NNW 24 33 13 18 1011.9 1011.9 0.2
27/02:30pm 18.1 16.1 15.4 84 1.6 NNW 20 39 11 21 1012.3 1012.3 0.2
27/02:22pm 17.0 12.2 14.7 86 1.3 NNW 33 54 18 29 1012.6 1012.6 0.2
27/02:04pm 19.2 14.0 13.4 69 3.3 NNW 33 46 18 25 1012.5 1012.5 0.0
27/02:00pm 19.8 14.4 12.7 63 4.0 NNW 33 43 18 23 1012.4 1012.4 0.0
27/01:30pm 21.0 15.7 12.5 58 4.8 NNW 32 39 17 21 1012.7 1012.7 0.0
27/01:19pm 21.2 16.8 12.8 58 4.8 N 28 46 15 25 1012.8 1012.8 0.0
27/01:00pm 20.9 15.6 13.0 60 4.5 N 33 46 18 25 1013.3 1013.3 0.0
27/12:30pm 20.5 15.3 12.7 61 4.4 N 32 44 17 24 1013.7 1013.7 0.0
27/12:19pm 20.1 14.2 12.4 61 4.3 N 35 54 19 29 1014.0 1014.0 0.0
27/12:00pm 19.8 14.0 12.7 63 4.0 N 35 48 19 26 1014.5 1014.5 0.0
27/11:30am 19.2 14.0 12.8 66 3.6 N 32 39 17 21 1015.3 1015.3 0.0
27/11:00am 19.0 14.6 13.0 68 3.4 N 28 37 15 20 1015.5 1015.5 0.0
27/10:30am 18.2 14.7 13.4 73 2.7 N 24 32 13 17 1016.1 1016.1 0.0
27/10:00am 17.0 13.5 13.3 79 2.1 N 24 33 13 18 1016.5 1016.5 0.0
27/09:30am 15.2 13.0 13.2 88 1.1 NNE 17 24 9 13 1016.7 1016.7 0.0
27/09:00am 14.5 12.2 12.9 90 0.9 NNE 17 20 9 11 1016.9 1016.9 24.0
27/08:30am 14.1 11.7 12.6 91 0.8 NNE 17 19 9 10 1017.0 1017.0 24.0
27/08:00am 13.5 11.1 12.6 94 0.5 NNE 17 22 9 12 1017.0 1017.0 24.0
27/07:30am 12.8 10.6 12.2 96 0.3 NNE 15 17 8 9 1016.9 1016.9 23.8
27/07:00am 12.3 10.3 11.5 95 0.4 NNE 13 15 7 8 1016.8 1016.8 23.8
27/06:30am 12.2 10.2 11.6 96 0.3 NE 13 13 7 7 1016.8 1016.8 23.8
27/06:00am 12.0 10.0 11.4 96 0.3 NE 13 20 7 11 1016.9 1016.9 23.8
27/05:30am 12.0 10.4 11.4 96 0.3 NE 11 15 6 8 1016.9 1016.9 23.8
27/05:00am 12.0 10.0 11.4 96 0.3 NE 13 15 7 8 1017.2 1017.2 23.8
27/04:30am 11.9 10.2 11.3 96 0.3 ENE 11 13 6 7 1017.5 1017.5 23.8
27/04:00am 12.1 10.5 11.7 97 0.2 ENE 11 13 6 7 1017.9 1017.9 23.8
27/03:30am 12.3 13.0 12.1 99 0.1 CALM 0 9 0 5 1018.2 1018.2 23.8
27/03:00am 12.3 11.6 11.9 97 0.2 NNE 7 9 4 5 1018.6 1018.6 23.8
27/02:30am 12.4 10.5 11.8 96 0.3 NE 13 17 7 9 1018.6 1018.6 23.8
27/02:00am 12.6 11.1 12.0 96 0.3 NE 11 13 6 7 1019.1 1019.1 23.6
27/01:30am 12.5 11.8 12.1 97 0.2 NNE 7 9 4 5 1019.3 1019.3 23.6
27/01:00am 12.5 11.8 12.1 97 0.2 NE 7 9 4 5 1019.4 1019.4 23.4
27/12:30am 12.4 11.3 12.0 97 0.2 ENE 9 13 5 7 1019.6 1019.6 23.4
27/12:00am 12.2 11.4 11.8 97 0.2 S 7 9 4 5 1020.0 1020.0 23.4
 
Date/Time
WST
Temp
°C
App
Temp
°C
Dew
Point
°C
Rel
Hum
%
Delta-T
°C
Wind Press
QNH
hPa
Press
MSL
hPa
Rain since
9am
mm
Dir  Spd
km/h
Gust
km/h
Spd
kts
Gust
kts
26/11:30pm 12.1 12.6 11.7 97 0.2 CALM 0 0 0 0 1020.2 1020.2 23.4
26/11:00pm 11.7 11.0 11.5 99 0.1 NE 6 7 3 4 1020.3 1020.3 23.4
26/10:30pm 11.9 10.7 11.5 97 0.2 ENE 9 15 5 8 1020.4 1020.4 23.4
26/10:00pm 12.3 11.6 12.1 99 0.1 NE 7 11 4 6 1020.5 1020.5 23.4
26/09:30pm 12.8 12.3 12.6 99 0.1 NNE 7 7 4 4 1020.4 1020.4 23.4
26/09:00pm 13.0 12.5 12.8 99 0.1 NE 7 9 4 5 1020.4 1020.4 23.4
26/08:30pm 13.8 13.2 13.4 97 0.2 NNE 9 11 5 6 1020.4 1020.4 23.4
26/08:00pm 14.0 12.7 13.6 97 0.2 NE 13 15 7 8 1020.3 1020.3 23.4
26/07:30pm 14.2 13.7 13.8 97 0.2 ENE 9 11 5 6 1020.3 1020.3 23.4
26/07:00pm 14.3 14.4 13.9 97 0.2 N 6 6 3 3 1020.1 1020.1 23.4
26/06:30pm 14.1 13.9 13.7 97 0.2 NNE 7 9 4 5 1019.7 1019.7 23.4
26/06:00pm 14.8 14.8 14.3 97 0.3 E 7 9 4 5 1019.3 1019.3 23.4
26/05:30pm 14.8 16.2 14.3 97 0.3 CALM 0 6 0 3 1019.4 1019.4 23.4
26/05:26pm 14.9 15.9 14.4 97 0.3 WSW 2 6 1 3 1019.4 1019.4 23.4
26/05:00pm 14.9 15.1 14.2 96 0.4 W 6 11 3 6 1019.2 1019.2 23.2
26/04:52pm 14.9 14.9 14.2 96 0.4 WNW 7 11 4 6 1019.0 1019.0 23.2
26/04:30pm 15.0 12.9 13.7 92 0.7 W 17 24 9 13 1018.9 1018.9 22.6
26/04:25pm 15.4 14.0 13.4 88 1.1 WSW 13 24 7 13 1018.9 1018.9 22.0
26/04:00pm 16.2 14.7 13.1 82 1.7 WNW 13 19 7 10 1018.4 1018.4 21.8
26/03:30pm 16.0 11.7 13.1 83 1.6 SSW 28 35 15 19 1018.2 1018.2 21.8
26/03:00pm 17.4 12.9 12.5 73 2.7 SW 28 37 15 20 1017.8 1017.8 21.8
26/02:47pm 17.9 13.2 12.1 69 3.2 WSW 28 48 15 26 1017.5 1017.5 21.8
26/02:30pm 18.4 14.3 11.4 63 3.8 WSW 24 33 13 18 1017.2 1017.2 21.8
26/02:00pm 18.5 13.5 11.1 62 4.0 WSW 28 41 15 22 1016.8 1016.8 21.8
26/01:30pm 18.0 14.5 12.2 69 3.2 WSW 22 35 12 19 1017.0 1017.0 21.8
26/01:00pm 17.2 17.4 15.8 91 0.8 N 9 13 5 7 1017.3 1017.3 21.8
26/12:30pm 16.2 15.8 15.2 94 0.6 WNW 11 15 6 8 1017.7 1017.7 21.8
26/12:00pm 15.5 13.4 14.8 96 0.4 WNW 19 26 10 14 1017.8 1017.8 21.8
26/11:39am 15.7 13.5 15.0 96 0.4 NW 20 28 11 15 1017.9 1017.9 17.2
26/11:30am 15.4 13.1 14.7 96 0.4 NW 20 32 11 17 1017.7 1017.7 15.6
26/11:00am 15.4 11.8 14.3 93 0.6 W 26 43 14 23 1018.1 1018.1 8.4
26/10:55am 15.7 13.0 14.6 93 0.6 SSW 22 37 12 20 1017.9 1017.9 2.0
26/10:30am 15.8 14.1 14.8 94 0.6 NNE 17 20 9 11 1017.5 1017.5 1.8
26/10:15am 15.2 13.3 14.3 94 0.5 NNE 17 26 9 14 1018.0 1018.0 1.8
26/10:00am 15.3 13.8 14.2 93 0.6 N 15 24 8 13 1018.1 1018.1 1.8
26/09:42am 16.0 15.2 14.1 88 1.1 S 11 30 6 16 1018.5 1018.5 0.6
26/09:30am 15.5 15.0 13.9 90 0.9 W 9 13 5 7 1018.1 1018.1 0.6
26/09:00am 15.6 12.3 11.7 77 2.1 NNE 20 28 11 15 1017.5 1017.5 0.2
26/08:30am 14.5 11.1 11.1 80 1.8 NNE 20 26 11 14 1017.3 1017.3 0.2
26/08:00am 13.1 9.7 10.6 85 1.3 N 19 24 10 13 1017.4 1017.4 0.2
26/07:30am 12.3 9.6 10.4 88 1.0 NNE 15 19 8 10 1017.3 1017.3 0.2
26/07:00am 11.8 9.1 10.2 90 0.8 NNE 15 17 8 9 1017.1 1017.1 0.2
26/06:30am 11.9 9.2 10.3 90 0.8 NNE 15 19 8 10 1016.8 1016.8 0.2
26/06:00am 12.3 9.6 10.2 87 1.1 NNE 15 22 8 12 1016.5 1016.5 0.2
26/05:30am 12.5 9.8 10.2 86 1.2 N 15 17 8 9 1016.8 1016.8 0.2
26/05:00am 12.3 9.1 10.0 86 1.2 NNE 17 19 9 10 1016.7 1016.7 0.2
26/04:30am 12.7 9.6 10.2 85 1.3 NNE 17 19 9 10 1016.9 1016.9 0.2
26/04:00am 12.7 10.3 10.0 84 1.4 NNE 13 17 7 9 1016.9 1016.9 0.2
26/03:30am 13.1 10.7 10.0 81 1.6 N 13 19 7 10 1017.1 1017.1 0.2
26/03:00am 12.9 9.7 10.0 82 1.5 NNE 17 20 9 11 1017.2 1017.2 0.2
26/02:30am 12.8 9.6 10.1 84 1.4 NNE 17 20 9 11 1017.4 1017.4 0.2
26/02:00am 12.5 9.7 10.0 85 1.3 NNE 15 19 8 10 1017.3 1017.3 0.2
26/01:30am 12.5 9.6 9.8 83 1.4 NNE 15 17 8 9 1017.6 1017.6 0.2
26/01:00am 12.4 9.6 9.9 85 1.3 NNE 15 17 8 9 1017.9 1017.9 0.2
26/12:30am 12.8 9.5 9.7 81 1.6 N 17 20 9 11 1018.0 1018.0 0.2
26/12:00am 12.9 9.7 9.8 81 1.6 N 17 20 9 11 1018.2 1018.2 0.2
 
Date/Time
WST
Temp
°C
App
Temp
°C
Dew
Point
°C
Rel
Hum
%
Delta-T
°C
Wind Press
QNH
hPa
Press
MSL
hPa
Rain since
9am
mm
Dir  Spd
km/h
Gust
km/h
Spd
kts
Gust
kts
25/11:30pm 12.7 9.8 9.5 81 1.6 NNE 15 19 8 10 1018.6 1018.6 0.2
25/11:00pm 12.0 9.5 9.6 85 1.2 N 13 15 7 8 1018.9 1018.9 0.2
25/10:30pm 12.0 9.4 9.4 84 1.3 N 13 17 7 9 1019.0 1019.0 0.2
25/10:00pm 12.4 9.1 9.4 82 1.5 NNE 17 19 9 10 1019.1 1019.1 0.2
25/09:30pm 12.6 9.2 9.2 80 1.7 NNE 17 19 9 10 1019.3 1019.3 0.2
25/09:00pm 13.0 10.1 9.5 79 1.8 NNE 15 17 8 9 1019.6 1019.6 0.2
25/08:30pm 13.1 10.2 9.6 79 1.8 NNE 15 17 8 9 1019.7 1019.7 0.2
25/08:00pm 12.8 10.2 9.4 80 1.7 NNE 13 15 7 8 1019.7 1019.7 0.2
25/07:30pm 13.2 10.9 9.0 75 2.1 NNW 11 15 6 8 1019.8 1019.8 0.2
25/07:00pm 14.9 12.2 9.0 68 3.0 NNW 13 15 7 8 1019.5 1019.5 0.2
25/06:30pm 15.3 12.4 9.7 69 2.9 NNW 15 19 8 10 1019.5 1019.5 0.2
25/06:00pm 16.1 12.7 9.1 63 3.6 NNW 17 22 9 12 1019.2 1019.2 0.2
25/05:30pm 16.7 13.4 9.4 62 3.8 NW 17 22 9 12 1019.2 1019.2 0.2
25/05:00pm 17.2 12.8 9.1 59 4.2 NW 22 28 12 15 1019.0 1019.0 0.2

Latest Capital City Observations: Canberra | Sydney | Melbourne | Brisbane | Adelaide | Perth | Hobart | Darwin

Other Formats:

Comma delimited format used in spreadsheet applications
http://www.bom.gov.au/fwo/IDW60901/IDW60901.94610.axf

JavaScript Object Notation format (JSON) in row-major order
http://www.bom.gov.au/fwo/IDW60901/IDW60901.94610.json